CheckWX is a tool to help pilots better visualize weather data.  It is not intended as a substitute for an official pre-flight weather briefing.

14:46:29 UTC

ENCN TAF
Kristiansand Airport
Kjevik, Norway
TAF ENCN 231400Z 2315/2322 26025G35KT 9999 FEW020 SCT040 BECMG 2315/2317 25012KT TEMPO 2317/2318 27018G28KT

Mar-23@
15:00 UTC

Mar-23 @ 15:00 UTC

Mar-23@
22:00 UTC

Mar-23 @ 22:00 UTC

TAF ENCN 231400Z 2315/2322 26025G35KT 9999 FEW020 SCT040
Wind
  • 260° at 25 KTS
  • {Gusting to 35 KTS
Cloud Levels
  • Few at 2,000' AGL
  • Scattered at 4,000' AGL

Mar-23@
15:00 UTC

Mar-23 @ 15:00 UTC

Mar-23@
22:00 UTC

Mar-23 @ 22:00 UTC

BECMG 2315/2317 25012KT

Becoming

Becoming Conditions expected by Sat, Mar 23, 2019 @ 17:00 UTC

Wind
  • 250° at 12 KTS
Cloud Levels
  • Few at 2,000' AGL
  • Scattered at 4,000' AGL

Mar-23@
17:00 UTC

Mar-23 @ 17:00 UTC

Mar-23@
18:00 UTC

Mar-23 @ 18:00 UTC

TEMPO 2317/2318 27018G28KT

Temporary

Temporary Changes expected for less than half the time period

Wind
  • 270° at 18 KTS
  • {Gusting to 28 KTS